createdAt,value
2022-10-07T00:10:00.625Z,7.80
2022-10-07T00:20:05.526Z,6.80
2022-10-07T00:30:10.219Z,6.50
2022-10-07T00:40:14.474Z,7.00
2022-10-07T00:50:24.383Z,6.90
2022-10-07T01:00:27.971Z,6.10
2022-10-07T01:10:49.010Z,6.80
2022-10-07T01:20:58.332Z,8.00
2022-10-07T01:31:07.580Z,7.10
2022-10-07T01:41:22.116Z,7.50
2022-10-07T01:51:29.051Z,6.90
2022-10-07T02:01:44.134Z,6.10
2022-10-07T02:11:57.265Z,6.20
2022-10-07T02:22:03.694Z,6.70
2022-10-07T02:32:12.225Z,6.70
2022-10-07T02:42:36.500Z,6.40
2022-10-07T02:52:44.264Z,6.60
2022-10-07T03:02:54.376Z,5.90
2022-10-07T03:13:00.007Z,7.10
2022-10-07T03:23:04.690Z,8.00
2022-10-07T03:33:09.982Z,8.40
2022-10-07T03:43:14.356Z,7.00
2022-10-07T03:53:19.458Z,8.00
2022-10-07T04:03:23.154Z,7.70
2022-10-07T04:13:27.653Z,7.60
2022-10-07T04:23:31.382Z,9.40
2022-10-07T04:33:39.634Z,9.30
2022-10-07T04:43:43.619Z,10.30
2022-10-07T04:53:57.106Z,10.00
2022-10-07T05:04:06.613Z,9.00
2022-10-07T05:14:10.578Z,10.20
2022-10-07T05:24:15.164Z,10.00
2022-10-07T05:34:20.812Z,10.30
2022-10-07T05:44:25.572Z,10.00
2022-10-07T05:54:30.048Z,10.30
2022-10-07T06:04:34.535Z,10.20
2022-10-07T06:14:38.710Z,9.40
2022-10-07T06:24:43.861Z,9.10
2022-10-07T06:34:47.929Z,7.60
2022-10-07T06:44:54.718Z,7.90
2022-10-07T06:54:59.514Z,7.50
2022-10-07T07:05:09.496Z,7.00
2022-10-07T07:15:14.526Z,7.90
2022-10-07T07:25:20.827Z,9.60
2022-10-07T07:35:29.513Z,9.40
2022-10-07T07:45:37.387Z,9.30
2022-10-07T07:55:55.698Z,28.00
2022-10-07T08:06:07.558Z,8.90
2022-10-07T08:16:14.826Z,7.80
2022-10-07T08:36:25.054Z,7.20
2022-10-07T08:46:32.867Z,7.20
2022-10-07T08:56:36.818Z,6.80
2022-10-07T09:06:52.764Z,7.00
2022-10-07T09:17:08.708Z,7.40
2022-10-07T09:27:18.503Z,7.40
2022-10-07T09:37:24.532Z,7.30
2022-10-07T09:47:37.520Z,6.40
2022-10-07T09:57:42.921Z,6.50
2022-10-07T10:07:48.580Z,5.60
2022-10-07T10:17:53.320Z,5.30
2022-10-07T10:28:14.302Z,4.90
2022-10-07T10:38:27.765Z,4.80
2022-10-07T10:48:43.622Z,4.50
2022-10-07T10:58:58.520Z,4.40
2022-10-07T11:09:04.314Z,4.00
2022-10-07T11:19:21.332Z,3.80
2022-10-07T11:29:46.554Z,3.20
2022-10-07T11:39:51.610Z,2.50
2022-10-07T11:50:08.306Z,2.70
2022-10-07T12:00:33.995Z,2.80
2022-10-07T12:10:37.683Z,2.30
2022-10-07T12:20:50.981Z,2.60
2022-10-07T12:31:03.237Z,3.10
2022-10-07T12:41:27.188Z,2.60
2022-10-07T12:51:40.758Z,2.40
2022-10-07T13:02:17.720Z,2.80
2022-10-07T13:12:33.535Z,2.60
2022-10-07T13:22:40.167Z,2.20
2022-10-07T13:32:44.261Z,3.30
2022-10-07T13:43:02.143Z,3.10
2022-10-07T13:53:06.360Z,3.40
2022-10-07T14:03:17.254Z,2.80
2022-10-07T14:13:21.817Z,4.10
2022-10-07T14:23:34.555Z,4.50
2022-10-07T14:34:13.342Z,5.00
2022-10-07T14:44:18.649Z,4.00
2022-10-07T14:54:22.948Z,4.60
2022-10-07T15:04:27.642Z,4.60
2022-10-07T15:14:32.305Z,4.50
2022-10-07T15:24:36.158Z,3.80
2022-10-07T15:34:40.370Z,3.70
2022-10-07T15:44:44.941Z,4.10
2022-10-07T15:54:48.519Z,5.00
2022-10-07T16:04:53.168Z,6.00
2022-10-07T16:14:58.301Z,4.90
2022-10-07T16:25:01.965Z,6.70
2022-10-07T16:35:06.266Z,7.70
2022-10-07T16:45:10.311Z,7.40
2022-10-07T16:55:14.925Z,6.80
2022-10-07T17:05:19.499Z,9.70
2022-10-07T17:15:23.768Z,9.90
2022-10-07T17:25:28.398Z,11.40
2022-10-07T17:35:33.188Z,11.10
2022-10-07T17:45:38.156Z,12.90
2022-10-07T17:55:51.488Z,17.60
2022-10-07T18:05:56.650Z,26.20
2022-10-07T18:16:05.517Z,27.50
2022-10-07T18:26:12.306Z,22.90
2022-10-07T18:36:19.869Z,19.90
2022-10-07T18:56:30.953Z,21.10
2022-10-07T19:06:39.995Z,19.60
2022-10-07T19:16:48.806Z,20.00
2022-10-07T19:26:55.547Z,19.10
2022-10-07T19:37:02.278Z,21.20
2022-10-07T19:47:08.103Z,24.00
2022-10-07T19:57:13.404Z,20.70
2022-10-07T20:07:18.504Z,20.30
2022-10-07T20:17:23.301Z,18.80
2022-10-07T20:27:27.459Z,17.30
2022-10-07T20:37:31.534Z,20.30
2022-10-07T20:47:35.617Z,17.40
2022-10-07T20:57:39.890Z,18.60
2022-10-07T21:07:43.772Z,15.80
2022-10-07T21:17:49.179Z,15.70
2022-10-07T21:27:53.762Z,16.60
2022-10-07T21:37:58.962Z,15.60
2022-10-07T21:48:02.857Z,16.40
2022-10-07T21:58:06.700Z,14.60
2022-10-07T22:08:34.517Z,17.00
2022-10-07T22:18:38.999Z,15.30
2022-10-07T22:28:43.815Z,15.30
2022-10-07T22:38:47.770Z,16.80
2022-10-07T22:48:54.212Z,15.30
2022-10-07T22:59:00.237Z,14.60
2022-10-07T23:09:04.904Z,15.20
2022-10-07T23:19:09.723Z,15.20
2022-10-07T23:29:14.199Z,13.00
2022-10-07T23:39:18.367Z,11.80
2022-10-07T23:49:21.997Z,11.60
2022-10-07T23:59:25.692Z,11.30
